Time;durP1;ratioP1;P1;durP2;ratioP2;P2;SDS_P1;SDS_P2;PMS_P1;PMS_P2;Temp;Humidity;BMP_temperature;BMP_pressure;BME280_temperature;BME280_humidity;BME280_pressure;Samples;Min_cycle;Max_cycle;Signal;HPM_P1;HPM_P2
2024/03/20 00:01:15;;;;;;;31.88;18.52;;;;;;;;;;6100368;23;20018;-74
2024/03/20 00:03:41;;;;;;;39.97;21.02;;;;;;;;;;6095461;23;20030;-72
2024/03/20 00:06:08;;;;;;;33.42;18.77;;;;;;;;;;6218626;23;20019;-74
2024/03/20 00:08:34;;;;;;;45.75;17.67;;;;;;;;;;6178364;23;20016;-74
2024/03/20 00:11:00;;;;;;;34.67;16.88;;;;;;;;;;6242238;23;20506;-72
2024/03/20 00:13:26;;;;;;;26.50;16.25;;;;;;;;;;6240901;23;20020;-73
2024/03/20 00:15:52;;;;;;;30.25;15.77;;;;;;;;;;6243527;23;20095;-74
2024/03/20 00:18:18;;;;;;;33.22;16.27;;;;;;;;;;6217284;23;20008;-74
2024/03/20 00:20:44;;;;;;;30.10;17.83;;;;;;;;;;6243459;23;20503;-75
2024/03/20 00:23:10;;;;;;;42.38;18.45;;;;;;;;;;6241855;23;20020;-74
2024/03/20 00:25:36;;;;;;;35.10;17.73;;;;;;;;;;6216277;23;20031;-73
2024/03/20 00:28:02;;;;;;;36.33;17.42;;;;;;;;;;6216513;23;20011;-72
2024/03/20 00:30:27;;;;;;;29.25;16.48;;;;;;;;;;6216270;23;20106;-74
2024/03/20 00:32:53;;;;;;;34.38;18.00;;;;;;;;;;6215186;23;20013;-74
2024/03/20 00:35:19;;;;;;;45.00;18.35;;;;;;;;;;6241535;23;20027;-73
2024/03/20 00:37:45;;;;;;;42.63;19.52;;;;;;;;;;6242997;23;20012;-74
2024/03/20 00:40:11;;;;;;;29.48;17.95;;;;;;;;;;6191707;23;20016;-74
2024/03/20 00:42:38;;;;;;;34.63;17.95;;;;;;;;;;6244385;23;20040;-73
2024/03/20 00:45:04;;;;;;;28.35;18.13;;;;;;;;;;6243597;23;20031;-74
2024/03/20 00:47:30;;;;;;;37.85;17.38;;;;;;;;;;6241578;22;20058;-74
2024/03/20 00:49:56;;;;;;;43.92;19.02;;;;;;;;;;6241169;23;20059;-74
2024/03/20 00:52:22;;;;;;;36.00;19.85;;;;;;;;;;6240963;23;20421;-74
2024/03/20 00:54:48;;;;;;;33.00;17.45;;;;;;;;;;6242842;23;20018;-74
2024/03/20 00:57:14;;;;;;;34.30;18.15;;;;;;;;;;6243982;23;20044;-74
2024/03/20 00:59:39;;;;;;;40.67;19.17;;;;;;;;;;6217647;23;20024;-73
2024/03/20 01:02:06;;;;;;;37.40;18.23;;;;;;;;;;6216200;23;20712;-74
2024/03/20 01:04:33;;;;;;;37.85;17.60;;;;;;;;;;6216538;23;20468;-74
2024/03/20 01:06:59;;;;;;;48.58;19.48;;;;;;;;;;6242871;23;20012;-73
2024/03/20 01:09:24;;;;;;;49.30;16.77;;;;;;;;;;6241266;23;20110;-73
2024/03/20 01:11:50;;;;;;;37.10;19.00;;;;;;;;;;6241106;23;20481;-71
2024/03/20 01:14:16;;;;;;;40.13;18.67;;;;;;;;;;6242887;23;20020;-74
2024/03/20 01:16:42;;;;;;;31.38;18.08;;;;;;;;;;6241237;23;20008;-72
2024/03/20 01:19:09;;;;;;;38.22;18.35;;;;;;;;;;6243906;23;20022;-73
2024/03/20 01:21:35;;;;;;;36.97;19.33;;;;;;;;;;6243916;23;20008;-74
2024/03/20 01:24:01;;;;;;;36.80;17.40;;;;;;;;;;6190890;23;20020;-71
2024/03/20 01:26:26;;;;;;;31.08;17.30;;;;;;;;;;6216745;23;20110;-74
2024/03/20 01:28:52;;;;;;;34.90;18.13;;;;;;;;;;6243502;23;20008;-73
2024/03/20 01:31:18;;;;;;;37.25;18.88;;;;;;;;;;6244193;23;20482;-74
2024/03/20 01:33:44;;;;;;;44.58;21.10;;;;;;;;;;6242964;23;20023;-73
2024/03/20 01:36:10;;;;;;;40.25;20.23;;;;;;;;;;6243614;23;20012;-72
2024/03/20 01:38:36;;;;;;;47.35;23.08;;;;;;;;;;6243975;23;20020;-73
2024/03/20 01:41:02;;;;;;;50.22;24.10;;;;;;;;;;6216917;23;20023;-74
2024/03/20 01:43:28;;;;;;;50.40;23.02;;;;;;;;;;6246000;23;20027;-73
2024/03/20 01:45:54;;;;;;;53.80;25.63;;;;;;;;;;6247803;22;20384;-74
2024/03/20 01:48:20;;;;;;;50.03;24.48;;;;;;;;;;6242526;23;20087;-72
2024/03/20 01:50:45;;;;;;;63.80;28.88;;;;;;;;;;6243579;23;20046;-73
2024/03/20 01:53:12;;;;;;;61.63;26.92;;;;;;;;;;6242302;23;20016;-74
2024/03/20 01:55:37;;;;;;;48.17;23.15;;;;;;;;;;6242555;23;20098;-73
2024/03/20 01:58:03;;;;;;;45.20;20.70;;;;;;;;;;6240697;23;20098;-73
2024/03/20 02:00:30;;;;;;;49.15;22.67;;;;;;;;;;6242583;23;20019;-73
2024/03/20 02:02:59;;;;;;;51.13;22.17;;;;;;;;;;6214298;23;20353;-74
2024/03/20 02:05:25;;;;;;;43.75;21.05;;;;;;;;;;6215458;23;20066;-74
2024/03/20 02:07:51;;;;;;;35.88;19.55;;;;;;;;;;6241834;23;20021;-74
2024/03/20 02:10:17;;;;;;;39.33;18.33;;;;;;;;;;6242277;23;20467;-74
2024/03/20 02:12:44;;;;;;;53.45;22.92;;;;;;;;;;6239403;23;20016;-76
2024/03/20 02:15:10;;;;;;;43.67;21.27;;;;;;;;;;6240765;23;20360;-75
2024/03/20 02:17:37;;;;;;;44.38;21.20;;;;;;;;;;6242463;23;20024;-75
2024/03/20 02:20:04;;;;;;;47.95;21.48;;;;;;;;;;6241850;23;20103;-75
2024/03/20 02:22:42;;;;;;;47.33;21.77;;;;;;;;;;6241162;23;20410;-75
2024/03/20 02:25:11;;;;;;;56.92;24.65;;;;;;;;;;6241783;23;20023;-75
2024/03/20 02:27:38;;;;;;;43.22;21.80;;;;;;;;;;6215812;23;20016;-75
2024/03/20 02:30:04;;;;;;;49.05;20.75;;;;;;;;;;6240315;23;20476;-76
2024/03/20 02:32:30;;;;;;;43.85;21.88;;;;;;;;;;6241258;23;20024;-75
2024/03/20 02:34:56;;;;;;;49.90;21.33;;;;;;;;;;6241976;23;20603;-75
2024/03/20 02:37:25;;;;;;;48.88;22.17;;;;;;;;;;6219020;23;20461;-74
2024/03/20 02:39:51;;;;;;;48.25;24.42;;;;;;;;;;6242357;23;20115;-74
2024/03/20 02:42:17;;;;;;;50.25;21.73;;;;;;;;;;6243128;23;20534;-74
2024/03/20 02:44:43;;;;;;;44.03;22.10;;;;;;;;;;6243939;23;20027;-73
2024/03/20 02:47:09;;;;;;;49.22;23.35;;;;;;;;;;6243838;22;20008;-74
2024/03/20 02:49:35;;;;;;;53.15;24.90;;;;;;;;;;6244175;23;20461;-75
2024/03/20 02:52:01;;;;;;;53.70;23.58;;;;;;;;;;6242626;23;20015;-73
2024/03/20 02:54:27;;;;;;;51.63;24.15;;;;;;;;;;6242626;23;20038;-74
2024/03/20 02:56:53;;;;;;;54.42;24.33;;;;;;;;;;6243855;23;20039;-74
2024/03/20 02:59:19;;;;;;;41.42;21.77;;;;;;;;;;6244031;23;20108;-72
2024/03/20 03:01:45;;;;;;;55.25;23.58;;;;;;;;;;6216032;23;20012;-72
2024/03/20 03:04:11;;;;;;;56.22;24.75;;;;;;;;;;6217293;23;20031;-73
2024/03/20 03:06:36;;;;;;;56.00;23.67;;;;;;;;;;6217806;23;20020;-72
2024/03/20 03:09:08;;;;;;;58.97;22.25;;;;;;;;;;6243485;23;20020;-72
2024/03/20 03:11:37;;;;;;;51.38;23.80;;;;;;;;;;6244040;23;20008;-73
2024/03/20 03:14:06;;;;;;;50.22;22.40;;;;;;;;;;6242932;23;20476;-74
2024/03/20 03:16:31;;;;;;;48.75;20.85;;;;;;;;;;6242389;23;20449;-73
2024/03/20 03:18:58;;;;;;;52.03;22.38;;;;;;;;;;6216810;23;20014;-73
2024/03/20 03:21:23;;;;;;;54.53;22.17;;;;;;;;;;6243470;23;20483;-73
2024/03/20 03:23:49;;;;;;;56.90;23.33;;;;;;;;;;6215690;23;20043;-72
2024/03/20 03:26:15;;;;;;;57.83;25.13;;;;;;;;;;6217184;23;20501;-74
2024/03/20 03:28:41;;;;;;;56.90;23.13;;;;;;;;;;6243729;23;20035;-72
2024/03/20 03:31:07;;;;;;;61.88;26.95;;;;;;;;;;6242712;23;20012;-74
2024/03/20 03:33:32;;;;;;;61.47;25.33;;;;;;;;;;6242043;23;20023;-75
2024/03/20 03:36:08;;;;;;;56.58;26.58;;;;;;;;;;6243870;23;20016;-71
2024/03/20 03:38:34;;;;;;;53.55;24.27;;;;;;;;;;6243264;23;20012;-73
2024/03/20 03:41:00;;;;;;;49.60;22.52;;;;;;;;;;6240861;23;20079;-72
2024/03/20 03:43:29;;;;;;;48.47;23.20;;;;;;;;;;6202166;23;20020;-72
2024/03/20 03:45:55;;;;;;;63.65;27.92;;;;;;;;;;6247668;22;20541;-72
2024/03/20 03:48:22;;;;;;;58.88;25.17;;;;;;;;;;6217583;23;20019;-71
2024/03/20 03:50:48;;;;;;;50.85;23.48;;;;;;;;;;6243420;23;20460;-72
2024/03/20 03:53:14;;;;;;;70.60;31.40;;;;;;;;;;6240417;23;20016;-72
2024/03/20 03:55:41;;;;;;;56.67;26.02;;;;;;;;;;6241905;23;20023;-72
2024/03/20 03:58:06;;;;;;;69.32;32.15;;;;;;;;;;6243172;23;20043;-72
2024/03/20 04:00:32;;;;;;;58.08;26.80;;;;;;;;;;6216468;23;20015;-72
2024/03/20 04:02:58;;;;;;;63.08;27.60;;;;;;;;;;6240191;23;20012;-72
2024/03/20 04:05:24;;;;;;;59.47;29.10;;;;;;;;;;6214575;23;20020;-74
2024/03/20 04:07:52;;;;;;;61.38;27.25;;;;;;;;;;6243517;23;20015;-75
2024/03/20 04:10:17;;;;;;;49.83;25.05;;;;;;;;;;6217163;23;20007;-76
2024/03/20 04:12:44;;;;;;;61.13;26.88;;;;;;;;;;6242006;23;20032;-75
2024/03/20 04:15:10;;;;;;;50.00;25.38;;;;;;;;;;6191486;23;20012;-74
2024/03/20 04:17:36;;;;;;;60.55;26.58;;;;;;;;;;6243531;23;20018;-74
2024/03/20 04:20:02;;;;;;;57.83;28.08;;;;;;;;;;6242459;23;20031;-76
2024/03/20 04:22:30;;;;;;;54.28;24.55;;;;;;;;;;6204266;23;20020;-75
2024/03/20 04:24:55;;;;;;;50.67;25.17;;;;;;;;;;6214909;23;20150;-75
2024/03/20 04:27:21;;;;;;;51.83;27.02;;;;;;;;;;6215002;23;20004;-73
2024/03/20 04:29:47;;;;;;;54.13;26.52;;;;;;;;;;6213280;23;20011;-73
2024/03/20 04:32:13;;;;;;;53.38;27.52;;;;;;;;;;6188067;23;20114;-75
2024/03/20 04:34:39;;;;;;;56.58;29.52;;;;;;;;;;6213561;23;20012;-73
2024/03/20 04:37:04;;;;;;;54.22;26.15;;;;;;;;;;6238724;23;20008;-73
2024/03/20 04:39:32;;;;;;;52.22;26.52;;;;;;;;;;6240564;23;20456;-74
2024/03/20 04:41:58;;;;;;;52.17;27.15;;;;;;;;;;6239025;23;20007;-74
2024/03/20 04:44:24;;;;;;;48.28;25.33;;;;;;;;;;6241507;23;20163;-73
2024/03/20 04:46:50;;;;;;;54.40;25.85;;;;;;;;;;6213973;23;20087;-75
2024/03/20 04:49:16;;;;;;;44.83;23.02;;;;;;;;;;6241990;23;20027;-75
2024/03/20 04:51:42;;;;;;;41.83;23.30;;;;;;;;;;6240759;23;20520;-75
2024/03/20 04:54:08;;;;;;;40.58;23.38;;;;;;;;;;6239504;23;20536;-74
2024/03/20 04:56:34;;;;;;;35.03;20.92;;;;;;;;;;6239418;23;20012;-76
2024/03/20 04:59:00;;;;;;;25.98;17.40;;;;;;;;;;6241273;23;20012;-80
2024/03/20 05:01:25;;;;;;;26.88;17.00;;;;;;;;;;6242920;23;20016;-76
2024/03/20 05:03:52;;;;;;;23.27;17.10;;;;;;;;;;6239338;23;20091;-75
2024/03/20 05:06:18;;;;;;;23.52;16.90;;;;;;;;;;6242519;23;20094;-74
2024/03/20 05:08:44;;;;;;;21.33;17.23;;;;;;;;;;6215510;23;20016;-77
2024/03/20 05:11:10;;;;;;;30.25;20.33;;;;;;;;;;6215592;23;20102;-75
2024/03/20 05:13:36;;;;;;;29.58;20.08;;;;;;;;;;6214941;23;20040;-75
2024/03/20 05:16:05;;;;;;;27.60;19.70;;;;;;;;;;6242128;23;20008;-74
2024/03/20 05:18:31;;;;;;;29.15;20.35;;;;;;;;;;6240953;23;20008;-75
2024/03/20 05:20:57;;;;;;;28.13;19.08;;;;;;;;;;6242258;23;20023;-75
2024/03/20 05:23:23;;;;;;;29.77;19.52;;;;;;;;;;6214810;23;20515;-73
2024/03/20 05:25:58;;;;;;;23.13;19.17;;;;;;;;;;6242501;23;20369;-75
2024/03/20 05:28:24;;;;;;;33.47;23.08;;;;;;;;;;6215991;23;20035;-74
2024/03/20 05:30:50;;;;;;;29.40;20.77;;;;;;;;;;6217279;23;20447;-74
2024/03/20 05:33:17;;;;;;;37.25;20.70;;;;;;;;;;6241250;23;20031;-75
2024/03/20 05:35:42;;;;;;;29.40;20.65;;;;;;;;;;6215413;23;20464;-73
2024/03/20 05:38:09;;;;;;;29.63;20.13;;;;;;;;;;6215488;23;20016;-76
2024/03/20 05:40:35;;;;;;;34.33;21.50;;;;;;;;;;6242713;23;20069;-76
2024/03/20 05:43:01;;;;;;;29.27;20.08;;;;;;;;;;6214178;23;20024;-76
2024/03/20 05:45:27;;;;;;;25.70;19.17;;;;;;;;;;6242445;23;20024;-77
2024/03/20 05:47:53;;;;;;;45.97;20.75;;;;;;;;;;6215620;23;20010;-79
2024/03/20 05:50:19;;;;;;;33.45;22.55;;;;;;;;;;6242320;23;20089;-76
2024/03/20 05:52:45;;;;;;;31.52;21.92;;;;;;;;;;6214622;23;20024;-76
2024/03/20 05:55:12;;;;;;;55.15;23.10;;;;;;;;;;6215190;23;20083;-77
2024/03/20 05:58:10;;;;;;;34.70;23.17;;;;;;;;;;6215973;23;20020;-78
2024/03/20 06:00:44;;;;;;;29.42;22.73;;;;;;;;;;6217559;23;20019;-77
2024/03/20 06:03:15;;;;;;;34.78;22.98;;;;;;;;;;6230124;23;20012;-77
2024/03/20 06:05:41;;;;;;;43.75;22.35;;;;;;;;;;6190816;23;20085;-74
2024/03/20 06:08:14;;;;;;;49.03;23.25;;;;;;;;;;6215739;23;20411;-76
2024/03/20 06:10:43;;;;;;;36.30;21.65;;;;;;;;;;6215713;23;20031;-75
2024/03/20 06:13:09;;;;;;;30.50;21.02;;;;;;;;;;6202112;23;20472;-74
2024/03/20 06:15:36;;;;;;;27.08;19.58;;;;;;;;;;6215916;23;20016;-74
2024/03/20 06:18:02;;;;;;;35.20;20.90;;;;;;;;;;6222843;23;20007;-72
2024/03/20 06:20:28;;;;;;;30.73;22.33;;;;;;;;;;6225362;23;20023;-75
2024/03/20 06:22:54;;;;;;;31.02;22.45;;;;;;;;;;6222800;23;20016;-74
2024/03/20 06:25:19;;;;;;;35.13;21.35;;;;;;;;;;6224464;23;20095;-74
2024/03/20 06:27:45;;;;;;;33.22;22.02;;;;;;;;;;6218748;23;20019;-75
2024/03/20 06:30:18;;;;;;;35.08;18.60;;;;;;;;;;6215692;23;20012;-74
2024/03/20 06:32:44;;;;;;;34.72;20.65;;;;;;;;;;6213402;23;20020;-74
2024/03/20 06:35:11;;;;;;;32.40;21.92;;;;;;;;;;6214647;23;20102;-76
2024/03/20 06:37:37;;;;;;;38.33;22.23;;;;;;;;;;6214565;23;20363;-75
2024/03/20 06:40:05;;;;;;;38.05;22.65;;;;;;;;;;6214953;23;20035;-76
2024/03/20 06:42:32;;;;;;;33.42;22.92;;;;;;;;;;6213397;23;20016;-74
2024/03/20 06:44:58;;;;;;;34.67;20.70;;;;;;;;;;6215552;23;20024;-74
2024/03/20 06:47:24;;;;;;;50.33;26.45;;;;;;;;;;6192028;23;20396;-75
2024/03/20 06:49:50;;;;;;;54.58;28.55;;;;;;;;;;6216932;23;20012;-75
2024/03/20 06:52:16;;;;;;;42.88;22.63;;;;;;;;;;6213456;23;20020;-76
2024/03/20 06:54:46;;;;;;;49.05;28.90;;;;;;;;;;6213683;23;20020;-73
2024/03/20 06:57:13;;;;;;;50.28;27.27;;;;;;;;;;6214042;23;20008;-73
2024/03/20 06:59:40;;;;;;;40.67;25.00;;;;;;;;;;6238470;23;20031;-74
2024/03/20 07:02:11;;;;;;;45.20;25.92;;;;;;;;;;6238625;23;20078;-73
2024/03/20 07:04:47;;;;;;;40.80;23.92;;;;;;;;;;6214884;23;20032;-73
2024/03/20 07:07:13;;;;;;;31.85;20.17;;;;;;;;;;6188752;23;20016;-73
2024/03/20 07:09:39;;;;;;;29.85;19.63;;;;;;;;;;6180665;23;20024;-73
2024/03/20 07:12:05;;;;;;;31.45;21.70;;;;;;;;;;6212613;23;20095;-74
2024/03/20 07:14:35;;;;;;;41.63;23.55;;;;;;;;;;6240463;23;20019;-74
2024/03/20 07:17:33;;;;;;;41.30;23.05;;;;;;;;;;6239582;23;20016;-72
2024/03/20 07:19:59;;;;;;;40.00;25.90;;;;;;;;;;6189274;23;20012;-73
2024/03/20 07:22:28;;;;;;;46.85;25.70;;;;;;;;;;6238715;23;20016;-75
2024/03/20 07:25:05;;;;;;;41.85;24.55;;;;;;;;;;6216948;23;20035;-74
2024/03/20 07:27:44;;;;;;;29.00;20.17;;;;;;;;;;6216516;23;20087;-76
2024/03/20 07:30:13;;;;;;;43.45;22.70;;;;;;;;;;6216260;23;20098;-75
2024/03/20 07:32:38;;;;;;;32.65;20.13;;;;;;;;;;6190036;23;20089;-75
2024/03/20 07:35:06;;;;;;;36.13;23.30;;;;;;;;;;6241905;23;20087;-75
2024/03/20 07:37:32;;;;;;;39.95;23.63;;;;;;;;;;6166450;23;20334;-74
2024/03/20 07:39:58;;;;;;;37.28;23.15;;;;;;;;;;6199225;23;20018;-75
2024/03/20 07:42:25;;;;;;;46.47;26.00;;;;;;;;;;6215010;23;20439;-75
2024/03/20 07:44:52;;;;;;;40.05;24.80;;;;;;;;;;6241984;23;20020;-75
2024/03/20 07:47:18;;;;;;;38.60;24.58;;;;;;;;;;6198960;23;20016;-74
2024/03/20 07:49:55;;;;;;;34.22;22.65;;;;;;;;;;6216820;23;20019;-73
2024/03/20 07:52:23;;;;;;;42.28;24.50;;;;;;;;;;6214252;23;20028;-73
2024/03/20 07:55:00;;;;;;;36.92;23.40;;;;;;;;;;6216198;23;20012;-74
2024/03/20 07:57:33;;;;;;;37.88;24.63;;;;;;;;;;6216663;23;20090;-75
2024/03/20 08:00:27;;;;;;;28.38;17.05;;;;;;;;;;6215631;23;20008;-74
2024/03/20 08:02:56;;;;;;;47.47;26.15;;;;;;;;;;6200330;23;20028;-74
2024/03/20 08:05:26;;;;;;;41.50;25.77;;;;;;;;;;6190624;23;20047;-74
2024/03/20 08:07:57;;;;;;;38.63;24.95;;;;;;;;;;6215231;23;20055;-74
2024/03/20 08:11:09;;;;;;;37.88;23.88;;;;;;;;;;6242077;23;20082;-74
2024/03/20 08:13:46;;;;;;;45.78;24.50;;;;;;;;;;6192109;23;20094;-75
2024/03/20 08:16:12;;;;;;;28.13;19.00;;;;;;;;;;6215524;23;20022;-73
2024/03/20 08:18:43;;;;;;;35.53;21.67;;;;;;;;;;6231078;23;20039;-73
2024/03/20 08:21:15;;;;;;;33.28;21.77;;;;;;;;;;6190543;23;20012;-73
2024/03/20 08:23:44;;;;;;;34.08;22.75;;;;;;;;;;6215182;23;20489;-73
2024/03/20 08:26:15;;;;;;;30.48;19.45;;;;;;;;;;6239635;23;20016;-73
2024/03/20 08:29:13;;;;;;;31.70;19.55;;;;;;;;;;6241083;23;20055;-73
2024/03/20 08:31:43;;;;;;;19.25;12.57;;;;;;;;;;6240007;23;20405;-73
2024/03/20 08:34:10;;;;;;;26.02;15.40;;;;;;;;;;6213659;23;20028;-74
2024/03/20 08:36:36;;;;;;;20.15;13.13;;;;;;;;;;6215507;23;20035;-77
2024/03/20 08:39:02;;;;;;;23.75;13.05;;;;;;;;;;6215295;23;20035;-75
2024/03/20 08:41:28;;;;;;;18.92;10.40;;;;;;;;;;6215093;23;20065;-77
2024/03/20 08:43:54;;;;;;;12.85;11.43;;;;;;;;;;6213468;23;20035;-76
2024/03/20 08:46:23;;;;;;;14.27;7.25;;;;;;;;;;6240685;22;20016;-76
2024/03/20 08:48:54;;;;;;;13.15;8.10;;;;;;;;;;6167056;23;20019;-76
2024/03/20 08:51:22;;;;;;;11.30;6.63;;;;;;;;;;6190081;23;20552;-76
2024/03/20 08:53:48;;;;;;;13.68;6.60;;;;;;;;;;6139674;23;20027;-75
2024/03/20 08:56:14;;;;;;;18.30;9.52;;;;;;;;;;6189595;23;20024;-75
2024/03/20 08:58:53;;;;;;;15.60;7.53;;;;;;;;;;6191603;23;20453;-77
2024/03/20 09:01:42;;;;;;;13.93;8.55;;;;;;;;;;6185710;23;20031;-75
2024/03/20 09:04:13;;;;;;;8.35;6.63;;;;;;;;;;6149305;23;20722;-75
2024/03/20 09:06:42;;;;;;;10.85;7.55;;;;;;;;;;6165524;23;20012;-76
2024/03/20 09:09:09;;;;;;;6.78;5.40;;;;;;;;;;6168324;22;20026;-75
2024/03/20 09:11:35;;;;;;;4.90;4.40;;;;;;;;;;6196156;22;20085;-76
2024/03/20 09:14:01;;;;;;;7.38;6.05;;;;;;;;;;6218333;22;20015;-76
2024/03/20 09:16:27;;;;;;;8.98;6.13;;;;;;;;;;6271711;22;20534;-75
2024/03/20 09:18:55;;;;;;;7.60;5.80;;;;;;;;;;6242485;22;20035;-76
2024/03/20 09:21:21;;;;;;;11.63;6.18;;;;;;;;;;6197583;22;20023;-77
2024/03/20 09:23:47;;;;;;;12.27;6.78;;;;;;;;;;6275561;22;20050;-74
2024/03/20 09:26:17;;;;;;;9.27;6.78;;;;;;;;;;6245599;22;20526;-74
2024/03/20 09:28:48;;;;;;;13.80;7.35;;;;;;;;;;6223156;22;20014;-75
2024/03/20 09:31:17;;;;;;;6.72;6.05;;;;;;;;;;6221641;22;20466;-75
2024/03/20 09:33:43;;;;;;;8.45;5.63;;;;;;;;;;6194636;22;20015;-75
2024/03/20 09:36:28;;;;;;;9.10;5.38;;;;;;;;;;6272320;22;20022;-74
2024/03/20 09:38:58;;;;;;;8.98;7.93;;;;;;;;;;6272062;22;20081;-73
2024/03/20 09:41:25;;;;;;;12.80;8.57;;;;;;;;;;6220788;22;20015;-75
2024/03/20 09:43:54;;;;;;;18.85;8.93;;;;;;;;;;6165710;22;20101;-76
2024/03/20 09:46:22;;;;;;;11.13;9.15;;;;;;;;;;6189874;23;20413;-74
2024/03/20 09:48:54;;;;;;;17.77;8.13;;;;;;;;;;6041690;23;20010;-76
2024/03/20 09:51:29;;;;;;;12.43;7.30;;;;;;;;;;6185576;23;20021;-75
2024/03/20 09:53:55;;;;;;;14.93;9.00;;;;;;;;;;6112103;23;20022;-76
2024/03/20 09:56:25;;;;;;;12.30;8.95;;;;;;;;;;6068742;23;20017;-76
2024/03/20 09:58:52;;;;;;;15.10;8.63;;;;;;;;;;6094134;23;20509;-75
2024/03/20 10:01:21;;;;;;;17.83;8.82;;;;;;;;;;6171141;22;20370;-76
2024/03/20 10:03:58;;;;;;;15.70;10.27;;;;;;;;;;6186668;22;20015;-76
2024/03/20 10:06:27;;;;;;;13.77;9.75;;;;;;;;;;6270271;22;20012;-76
2024/03/20 10:08:53;;;;;;;11.07;9.18;;;;;;;;;;6191650;22;20115;-74
2024/03/20 10:11:19;;;;;;;10.90;8.05;;;;;;;;;;6195211;22;20042;-76
2024/03/20 10:13:45;;;;;;;12.23;7.85;;;;;;;;;;6108303;22;20335;-75
2024/03/20 10:16:14;;;;;;;13.48;8.98;;;;;;;;;;6087898;23;20129;-74
2024/03/20 10:18:42;;;;;;;12.18;5.97;;;;;;;;;;6089077;23;20042;-75
2024/03/20 10:21:11;;;;;;;11.07;7.07;;;;;;;;;;6086661;23;20109;-75
2024/03/20 10:23:41;;;;;;;13.93;7.07;;;;;;;;;;6163342;23;20037;-74
2024/03/20 10:26:07;;;;;;;11.20;7.85;;;;;;;;;;6086510;23;20045;-75
2024/03/20 10:28:36;;;;;;;15.98;8.32;;;;;;;;;;6040708;23;20006;-75
2024/03/20 10:31:08;;;;;;;12.45;6.85;;;;;;;;;;6086840;23;20037;-76
2024/03/20 10:33:35;;;;;;;9.20;8.23;;;;;;;;;;6176693;22;20368;-76
2024/03/20 10:36:01;;;;;;;9.00;6.38;;;;;;;;;;6196146;22;20020;-75
2024/03/20 10:38:32;;;;;;;13.07;8.32;;;;;;;;;;6245576;22;20012;-75
2024/03/20 10:41:12;;;;;;;16.48;8.60;;;;;;;;;;6246830;22;20043;-75
2024/03/20 10:43:40;;;;;;;11.52;8.55;;;;;;;;;;6244086;22;20103;-75
2024/03/20 10:46:26;;;;;;;15.43;8.00;;;;;;;;;;6244669;22;20035;-75
2024/03/20 10:48:59;;;;;;;11.70;9.50;;;;;;;;;;6245029;22;20019;-75
2024/03/20 10:51:26;;;;;;;9.10;6.13;;;;;;;;;;6220592;22;20008;-75
2024/03/20 10:53:52;;;;;;;10.05;6.57;;;;;;;;;;6270977;22;20026;-75
2024/03/20 10:59:03;;;;;;;12.32;7.55;;;;;;;;;;6274205;22;20011;-74
2024/03/20 11:01:30;;;;;;;7.57;6.30;;;;;;;;;;6223101;22;20019;-74
2024/03/20 11:03:56;;;;;;;7.68;5.45;;;;;;;;;;6275418;22;20524;-75
2024/03/20 11:06:28;;;;;;;9.85;6.53;;;;;;;;;;6232570;22;20008;-74
2024/03/20 11:08:55;;;;;;;14.75;6.75;;;;;;;;;;6258182;22;20028;-76
2024/03/20 11:11:28;;;;;;;9.65;4.93;;;;;;;;;;6255985;22;20392;-75
2024/03/20 11:13:57;;;;;;;10.95;7.97;;;;;;;;;;6248446;22;20434;-75
2024/03/20 11:16:23;;;;;;;8.20;6.78;;;;;;;;;;6223486;22;20026;-75
2024/03/20 11:19:01;;;;;;;9.35;6.35;;;;;;;;;;6197645;22;20012;-75
2024/03/20 11:21:27;;;;;;;10.55;6.88;;;;;;;;;;6223901;22;20106;-74
2024/03/20 11:23:56;;;;;;;8.20;6.20;;;;;;;;;;6220114;22;20043;-77
2024/03/20 11:26:22;;;;;;;11.27;7.00;;;;;;;;;;6197546;22;20003;-74
2024/03/20 11:28:48;;;;;;;11.35;8.02;;;;;;;;;;6272840;22;20023;-75
2024/03/20 11:31:17;;;;;;;7.60;6.57;;;;;;;;;;6223280;22;20146;-75
2024/03/20 11:33:48;;;;;;;14.50;7.40;;;;;;;;;;6247808;22;20030;-75
2024/03/20 11:36:15;;;;;;;7.55;5.25;;;;;;;;;;6247268;22;20019;-76
2024/03/20 11:38:41;;;;;;;12.18;7.57;;;;;;;;;;6197151;22;20026;-75
2024/03/20 11:41:10;;;;;;;12.50;7.13;;;;;;;;;;6197713;22;20495;-75
2024/03/20 11:43:43;;;;;;;10.70;6.90;;;;;;;;;;6247190;22;20312;-76
2024/03/20 11:46:30;;;;;;;6.65;5.30;;;;;;;;;;6274170;22;20547;-75
2024/03/20 11:48:56;;;;;;;12.43;8.07;;;;;;;;;;6223231;22;20437;-75
2024/03/20 11:51:25;;;;;;;25.05;8.65;;;;;;;;;;6272701;22;20018;-75
2024/03/20 11:53:52;;;;;;;15.30;8.43;;;;;;;;;;6106974;23;20029;-74
2024/03/20 11:56:18;;;;;;;15.00;8.73;;;;;;;;;;6117328;23;20030;-75
2024/03/20 11:58:53;;;;;;;10.15;6.93;;;;;;;;;;6069487;23;20489;-76
2024/03/20 12:01:20;;;;;;;16.85;8.73;;;;;;;;;;6093018;23;20020;-76
2024/03/20 12:03:48;;;;;;;19.02;9.07;;;;;;;;;;6220538;22;20016;-75
2024/03/20 12:06:21;;;;;;;15.57;8.68;;;;;;;;;;6247082;22;20081;-76
2024/03/20 12:08:47;;;;;;;17.05;8.07;;;;;;;;;;6221817;22;20443;-75
2024/03/20 12:11:18;;;;;;;17.88;9.02;;;;;;;;;;6276204;22;20014;-74
2024/03/20 12:13:47;;;;;;;16.38;8.38;;;;;;;;;;6245209;22;20077;-76
2024/03/20 12:16:16;;;;;;;14.35;9.65;;;;;;;;;;6222315;22;20043;-73
2024/03/20 12:18:48;;;;;;;11.85;7.97;;;;;;;;;;6271170;22;20043;-75
2024/03/20 12:21:20;;;;;;;14.63;8.13;;;;;;;;;;6271990;22;20012;-76
2024/03/20 12:23:49;;;;;;;11.85;7.90;;;;;;;;;;6267276;22;20051;-75
2024/03/20 12:26:23;;;;;;;10.90;7.57;;;;;;;;;;6196743;22;20106;-75
2024/03/20 12:28:50;;;;;;;9.85;6.80;;;;;;;;;;6271911;22;20444;-74
2024/03/20 12:31:22;;;;;;;6.78;6.00;;;;;;;;;;6272006;22;20015;-75
2024/03/20 12:33:51;;;;;;;7.07;6.22;;;;;;;;;;6270204;22;20019;-74
2024/03/20 12:36:18;;;;;;;10.85;7.18;;;;;;;;;;6273274;22;20034;-74
2024/03/20 12:38:45;;;;;;;7.38;6.57;;;;;;;;;;6272091;22;20004;-75
2024/03/20 12:41:12;;;;;;;8.15;6.60;;;;;;;;;;6271986;22;20035;-73
2024/03/20 12:43:39;;;;;;;11.63;6.97;;;;;;;;;;6272222;22;20016;-74
2024/03/20 12:46:07;;;;;;;15.48;8.20;;;;;;;;;;6273372;22;20014;-75
2024/03/20 12:48:33;;;;;;;4.95;4.53;;;;;;;;;;6246194;22;20018;-75
2024/03/20 12:51:03;;;;;;;14.52;7.80;;;;;;;;;;6273374;22;20123;-74
2024/03/20 12:53:29;;;;;;;8.30;6.70;;;;;;;;;;6270703;22;20023;-75
2024/03/20 12:55:55;;;;;;;10.30;5.43;;;;;;;;;;6271925;22;20080;-77
2024/03/20 12:58:21;;;;;;;7.00;6.20;;;;;;;;;;6271236;22;20012;-75
2024/03/20 13:00:47;;;;;;;7.45;6.20;;;;;;;;;;6272136;22;20020;-75
2024/03/20 13:03:17;;;;;;;11.18;6.25;;;;;;;;;;6272090;22;20011;-75
2024/03/20 13:05:43;;;;;;;9.07;6.30;;;;;;;;;;6246489;22;20073;-76
2024/03/20 13:08:15;;;;;;;7.93;5.60;;;;;;;;;;6274225;22;20014;-74
2024/03/20 13:10:42;;;;;;;6.72;6.03;;;;;;;;;;6271685;22;20106;-75
2024/03/20 13:13:19;;;;;;;6.75;5.63;;;;;;;;;;6271192;22;20098;-74
2024/03/20 13:15:46;;;;;;;8.00;5.93;;;;;;;;;;6271073;22;20023;-75
2024/03/20 13:18:27;;;;;;;12.45;6.65;;;;;;;;;;6272479;22;20016;-74
2024/03/20 13:20:57;;;;;;;7.93;6.32;;;;;;;;;;6272635;22;20018;-74
2024/03/20 13:23:23;;;;;;;7.55;6.80;;;;;;;;;;6270060;22;20103;-74
2024/03/20 13:28:37;;;;;;;11.55;6.30;;;;;;;;;;6271739;22;20030;-74
2024/03/20 13:31:04;;;;;;;12.52;6.18;;;;;;;;;;6246255;22;20023;-74
2024/03/20 13:33:31;;;;;;;10.10;6.97;;;;;;;;;;6270125;22;20012;-75
2024/03/20 13:35:58;;;;;;;8.15;6.05;;;;;;;;;;6271396;22;20027;-75
2024/03/20 13:38:26;;;;;;;7.75;6.28;;;;;;;;;;6272695;22;20095;-75
2024/03/20 13:46:20;;;;;;;8.63;5.55;;;;;;;;;;6273934;22;20464;-75
2024/03/20 13:48:46;;;;;;;9.80;6.30;;;;;;;;;;6271172;22;20030;-75
2024/03/20 13:51:16;;;;;;;12.65;6.13;;;;;;;;;;6273847;22;20015;-74
2024/03/20 13:53:46;;;;;;;8.02;5.07;;;;;;;;;;6274417;22;20030;-75
2024/03/20 13:56:13;;;;;;;6.88;5.82;;;;;;;;;;6276263;22;20023;-74
2024/03/20 13:58:39;;;;;;;8.98;6.25;;;;;;;;;;6279290;22;20008;-74
2024/03/20 14:01:11;;;;;;;6.13;5.30;;;;;;;;;;6275651;22;20098;-75
2024/03/20 14:03:39;;;;;;;11.40;6.18;;;;;;;;;;6261343;22;20023;-76
2024/03/20 14:06:26;;;;;;;7.53;5.93;;;;;;;;;;6272798;22;20057;-75
2024/03/20 14:08:55;;;;;;;6.50;5.45;;;;;;;;;;6271222;22;20027;-75
2024/03/20 14:11:22;;;;;;;11.35;5.00;;;;;;;;;;6272925;22;20012;-74
2024/03/20 14:13:48;;;;;;;20.20;8.13;;;;;;;;;;6269444;22;20023;-75
2024/03/20 14:16:18;;;;;;;15.68;8.73;;;;;;;;;;6271443;22;20026;-74
2024/03/20 14:18:50;;;;;;;13.75;8.43;;;;;;;;;;6245085;22;20019;-74
2024/03/20 14:21:16;;;;;;;16.52;8.15;;;;;;;;;;6273099;22;20018;-75
2024/03/20 14:23:45;;;;;;;9.27;8.10;;;;;;;;;;6244062;22;20015;-75
2024/03/20 14:26:16;;;;;;;13.73;8.68;;;;;;;;;;6222691;22;20008;-74
2024/03/20 14:28:54;;;;;;;16.58;8.93;;;;;;;;;;6273264;22;20090;-74
2024/03/20 14:31:22;;;;;;;14.88;8.38;;;;;;;;;;6246025;22;20047;-74
2024/03/20 14:33:48;;;;;;;16.10;8.70;;;;;;;;;;6270199;22;20027;-74
2024/03/20 14:36:16;;;;;;;13.60;8.55;;;;;;;;;;6272089;22;20046;-74
2024/03/20 14:39:01;;;;;;;10.52;7.93;;;;;;;;;;6273428;22;20028;-74
2024/03/20 14:41:31;;;;;;;12.35;9.02;;;;;;;;;;6272708;22;20092;-75